Time;durP1;ratioP1;P1;durP2;ratioP2;P2;SDS_P1;SDS_P2;PMS_P1;PMS_P2;Temp;Humidity;BMP_temperature;BMP_pressure;BME280_temperature;BME280_humidity;BME280_pressure;Samples;Min_cycle;Max_cycle;Signal;HPM_P1;HPM_P2
2021/04/05 00:00:16;;;;;;;51.95;19.98;;;;;;;;;;8294896;28;20604;-65
2021/04/05 00:04:20;;;;;;;55.35;19.00;;;;;;;;;;8295353;28;20406;-66
2021/04/05 00:08:24;;;;;;;50.17;19.42;;;;;;;;;;8295775;28;20052;-65
2021/04/05 00:12:29;;;;;;;47.58;18.92;;;;;;;;;;8296756;28;20384;-65
2021/04/05 00:16:33;;;;;;;48.00;19.92;;;;;;;;;;8294807;28;20070;-65
2021/04/05 00:20:43;;;;;;;50.67;20.58;;;;;;;;;;8295707;28;20556;-65
2021/04/05 00:24:49;;;;;;;56.28;19.98;;;;;;;;;;8294666;28;20406;-65
2021/04/05 00:28:52;;;;;;;56.13;20.30;;;;;;;;;;8293895;28;20426;-65
2021/04/05 00:32:57;;;;;;;44.22;20.33;;;;;;;;;;8293470;28;20367;-65
2021/04/05 00:37:01;;;;;;;50.55;20.50;;;;;;;;;;8294439;28;20471;-65
2021/04/05 00:41:07;;;;;;;52.63;19.88;;;;;;;;;;8293220;28;20475;-65
2021/04/05 00:45:15;;;;;;;54.67;19.00;;;;;;;;;;8294674;28;20104;-65
2021/04/05 00:49:20;;;;;;;;;;;;;;;;;;8295455;28;20401;-65
2021/04/05 00:53:40;;;;;;;53.05;19.70;;;;;;;;;;8292246;28;20285;-65
2021/04/05 00:57:45;;;;;;;47.60;20.17;;;;;;;;;;8293165;28;20360;-66
2021/04/05 01:01:50;;;;;;;75.05;22.40;;;;;;;;;;8296699;28;20378;-66
2021/04/05 01:06:20;;;;;;;111.80;28.25;;;;;;;;;;8316913;28;20343;-66
2021/04/05 01:10:25;;;;;;;100.82;27.23;;;;;;;;;;8326164;28;20485;-66
2021/04/05 01:14:30;;;;;;;82.88;25.05;;;;;;;;;;8325873;28;20411;-65
2021/04/05 01:18:35;;;;;;;81.18;21.60;;;;;;;;;;8324994;28;20378;-65
2021/04/05 01:22:45;;;;;;;66.22;20.85;;;;;;;;;;8323676;28;20379;-66
2021/04/05 01:26:50;;;;;;;63.25;21.25;;;;;;;;;;8325058;28;20462;-65
2021/04/05 01:30:58;;;;;;;79.93;23.88;;;;;;;;;;8323176;28;20489;-65
2021/04/05 01:35:06;;;;;;;65.50;22.85;;;;;;;;;;8324528;28;20379;-65
2021/04/05 01:39:10;;;;;;;62.42;20.40;;;;;;;;;;8325387;28;20074;-66
2021/04/05 01:43:15;;;;;;;58.70;21.38;;;;;;;;;;8324616;28;20368;-65
2021/04/05 01:47:19;;;;;;;57.83;20.48;;;;;;;;;;8327757;28;20351;-65
2021/04/05 01:51:25;;;;;;;57.72;19.85;;;;;;;;;;8306410;28;20496;-65
2021/04/05 01:55:30;;;;;;;45.83;18.83;;;;;;;;;;8326673;28;20380;-66
2021/04/05 01:59:36;;;;;;;62.95;20.73;;;;;;;;;;8323747;28;20397;-66
2021/04/05 02:03:42;;;;;;;49.92;18.77;;;;;;;;;;8324218;28;20372;-67
2021/04/05 02:07:46;;;;;;;42.83;17.73;;;;;;;;;;8325361;28;20373;-65
2021/04/05 02:11:51;;;;;;;49.83;19.65;;;;;;;;;;8324003;28;20075;-66
2021/04/05 02:15:57;;;;;;;51.92;19.50;;;;;;;;;;8323712;28;20048;-66
2021/04/05 02:20:05;;;;;;;45.95;18.20;;;;;;;;;;8322364;28;20110;-66
2021/04/05 02:24:11;;;;;;;51.03;19.58;;;;;;;;;;8323966;28;20442;-66
2021/04/05 02:28:15;;;;;;;51.92;18.02;;;;;;;;;;8322345;28;20405;-65
2021/04/05 02:32:20;;;;;;;44.53;17.23;;;;;;;;;;8321536;28;20469;-66
2021/04/05 02:36:30;;;;;;;49.38;18.40;;;;;;;;;;8321029;28;20052;-66
2021/04/05 02:40:38;;;;;;;40.85;17.52;;;;;;;;;;8322311;28;20378;-66
2021/04/05 02:44:43;;;;;;;42.92;17.20;;;;;;;;;;8322673;28;20119;-65
2021/04/05 02:48:59;;;;;;;48.67;18.23;;;;;;;;;;8321938;28;20060;-67
2021/04/05 02:53:07;;;;;;;47.40;18.63;;;;;;;;;;8320818;28;20459;-65
2021/04/05 02:57:12;;;;;;;49.67;18.55;;;;;;;;;;8324801;28;20355;-65
2021/04/05 03:01:18;;;;;;;44.85;17.38;;;;;;;;;;8322726;28;20478;-66
2021/04/05 03:05:26;;;;;;;42.67;16.52;;;;;;;;;;8320887;28;20048;-65
2021/04/05 03:09:30;;;;;;;43.70;16.63;;;;;;;;;;8321026;28;20558;-65
2021/04/05 03:13:38;;;;;;;45.78;16.70;;;;;;;;;;8323446;28;20363;-65
2021/04/05 03:17:43;;;;;;;39.67;15.27;;;;;;;;;;8328984;28;20453;-65
2021/04/05 03:21:48;;;;;;;46.10;17.60;;;;;;;;;;8327009;28;20383;-65
2021/04/05 03:25:53;;;;;;;49.60;17.55;;;;;;;;;;8327276;28;20450;-67
2021/04/05 03:30:00;;;;;;;43.95;15.50;;;;;;;;;;8329140;28;20043;-67
2021/04/05 03:34:16;;;;;;;54.53;19.27;;;;;;;;;;8328535;28;20471;-65
2021/04/05 03:38:20;;;;;;;47.03;17.70;;;;;;;;;;8326988;28;20056;-65
2021/04/05 03:42:46;;;;;;;53.67;18.40;;;;;;;;;;8326410;28;20386;-64
2021/04/05 03:46:54;;;;;;;62.53;18.15;;;;;;;;;;8311920;28;20405;-65
2021/04/05 03:51:21;;;;;;;76.28;19.75;;;;;;;;;;8329367;28;20056;-66
2021/04/05 03:55:28;;;;;;;88.35;22.08;;;;;;;;;;8325976;28;20386;-65
2021/04/05 03:59:39;;;;;;;87.22;20.95;;;;;;;;;;8327744;28;20443;-65
2021/04/05 04:03:53;;;;;;;82.50;21.27;;;;;;;;;;8327639;28;20379;-66
2021/04/05 04:08:03;;;;;;;78.85;20.58;;;;;;;;;;8326883;28;20623;-66
2021/04/05 04:12:13;;;;;;;75.45;20.13;;;;;;;;;;8326900;28;20463;-66
2021/04/05 04:16:19;;;;;;;73.22;19.10;;;;;;;;;;8327260;28;20048;-65
2021/04/05 04:20:26;;;;;;;66.47;20.67;;;;;;;;;;8326492;28;20052;-65
2021/04/05 04:24:35;;;;;;;54.03;17.02;;;;;;;;;;8324653;28;20328;-66
2021/04/05 04:28:44;;;;;;;54.00;16.42;;;;;;;;;;8326824;28;20455;-66
2021/04/05 04:32:52;;;;;;;60.83;17.73;;;;;;;;;;8327033;28;20490;-65
2021/04/05 04:37:03;;;;;;;44.58;17.25;;;;;;;;;;8327254;28;20071;-65
2021/04/05 04:41:07;;;;;;;47.47;16.23;;;;;;;;;;8328246;28;20369;-66
2021/04/05 04:45:12;;;;;;;48.80;15.70;;;;;;;;;;8326026;28;20066;-65
2021/04/05 04:49:17;;;;;;;39.58;14.75;;;;;;;;;;8328134;28;20370;-65
2021/04/05 04:53:21;;;;;;;33.22;13.73;;;;;;;;;;8326784;28;20486;-66
2021/04/05 04:57:26;;;;;;;34.10;15.02;;;;;;;;;;8323432;28;20473;-65
2021/04/05 05:01:39;;;;;;;28.90;12.20;;;;;;;;;;8325756;28;20454;-66
2021/04/05 05:05:44;;;;;;;31.10;13.05;;;;;;;;;;8326080;28;20056;-66
2021/04/05 05:09:49;;;;;;;32.65;13.13;;;;;;;;;;8324110;28;20459;-65
2021/04/05 05:13:53;;;;;;;28.85;13.68;;;;;;;;;;8325059;28;20478;-66
2021/04/05 05:17:59;;;;;;;27.98;13.25;;;;;;;;;;8324042;28;20458;-67
2021/04/05 05:22:05;;;;;;;32.20;14.25;;;;;;;;;;8323785;28;20044;-66
2021/04/05 05:26:13;;;;;;;30.50;13.00;;;;;;;;;;8323375;28;20056;-65
2021/04/05 05:30:21;;;;;;;30.20;12.40;;;;;;;;;;8323640;28;20387;-66
2021/04/05 05:34:25;;;;;;;27.48;12.65;;;;;;;;;;8325291;28;20477;-66
2021/04/05 05:38:30;;;;;;;24.73;12.20;;;;;;;;;;8324343;28;20422;-68
2021/04/05 05:42:57;;;;;;;24.17;11.63;;;;;;;;;;8324866;28;20374;-66
2021/04/05 05:47:08;;;;;;;22.55;11.32;;;;;;;;;;8308629;28;20351;-67
2021/04/05 05:51:24;;;;;;;23.90;12.60;;;;;;;;;;8322007;28;20078;-68
2021/04/05 05:55:39;;;;;;;29.52;15.70;;;;;;;;;;8306642;28;20348;-68
2021/04/05 06:00:07;;;;;;;36.00;16.33;;;;;;;;;;8322566;28;20048;-68
2021/04/05 06:04:34;;;;;;;34.30;15.90;;;;;;;;;;8324194;28;20051;-68
2021/04/05 06:09:12;;;;;;;26.17;11.57;;;;;;;;;;8325757;28;20379;-68
2021/04/05 06:13:52;;;;;;;22.63;9.10;;;;;;;;;;8323375;28;20379;-69
2021/04/05 06:18:14;;;;;;;28.63;12.10;;;;;;;;;;8286521;28;20469;-70
2021/04/05 06:22:58;;;;;;;21.85;9.60;;;;;;;;;;8322765;28;20348;-69
2021/04/05 06:27:28;;;;;;;14.55;6.65;;;;;;;;;;8323071;28;20374;-70
2021/04/05 06:32:27;;;;;;;9.85;4.97;;;;;;;;;;8322815;28;20366;-70
2021/04/05 06:36:48;;;;;;;;;;;;;;;;;;8286729;28;20332;-69
2021/04/05 06:41:01;;;;;;;8.07;3.85;;;;;;;;;;8321596;28;20243;-70
2021/04/05 06:45:47;;;;;;;6.65;3.53;;;;;;;;;;8323070;28;20368;-70
2021/04/05 06:49:51;;;;;;;9.85;4.72;;;;;;;;;;8326580;28;20358;-69
2021/04/05 06:54:48;;;;;;;5.97;2.95;;;;;;;;;;8327997;28;20358;-69
2021/04/05 06:59:29;;;;;;;6.38;3.38;;;;;;;;;;8326855;28;20381;-70
2021/04/05 07:04:22;;;;;;;9.50;3.63;;;;;;;;;;8329122;28;20048;-70
2021/04/05 07:09:04;;;;;;;10.57;3.47;;;;;;;;;;8327974;28;20363;-73
2021/04/05 07:13:27;;;;;;;18.17;4.63;;;;;;;;;;8326946;28;20455;-69
2021/04/05 07:17:41;;;;;;;9.38;3.92;;;;;;;;;;8328511;28;20471;-70
2021/04/05 07:22:09;;;;;;;20.73;4.35;;;;;;;;;;8328027;28;20442;-69
2021/04/05 07:26:42;;;;;;;15.30;4.20;;;;;;;;;;8328173;28;20052;-69
2021/04/05 07:31:37;;;;;;;24.45;3.75;;;;;;;;;;8326661;28;20461;-69
2021/04/05 07:36:10;;;;;;;17.27;4.57;;;;;;;;;;8285454;28;20459;-71
2021/04/05 07:40:49;;;;;;;28.05;4.05;;;;;;;;;;8326763;28;20466;-69
2021/04/05 07:45:55;;;;;;;11.45;5.18;;;;;;;;;;8326385;28;20066;-69
2021/04/05 07:50:33;;;;;;;11.52;3.60;;;;;;;;;;8327328;28;20044;-69
2021/04/05 07:54:40;;;;;;;23.02;5.25;;;;;;;;;;8326104;28;20402;-70
2021/04/05 07:59:23;;;;;;;22.42;3.55;;;;;;;;;;8326319;28;20459;-69
2021/04/05 08:03:52;;;;;;;53.83;5.88;;;;;;;;;;8325294;28;20435;-70
2021/04/05 08:08:19;;;;;;;17.67;3.70;;;;;;;;;;8326034;28;20047;-70
2021/04/05 08:12:57;;;;;;;7.78;3.25;;;;;;;;;;8326781;28;20377;-70
2021/04/05 08:17:50;;;;;;;31.00;4.95;;;;;;;;;;8326390;28;20481;-71
2021/04/05 08:23:01;;;;;;;24.88;5.35;;;;;;;;;;8306423;28;20386;-69
2021/04/05 08:27:43;;;;;;;61.63;7.05;;;;;;;;;;8274898;28;20379;-70
2021/04/05 08:32:23;;;;;;;72.80;9.48;;;;;;;;;;8310347;28;20371;-69
2021/04/05 08:36:48;;;;;;;25.38;5.90;;;;;;;;;;8326991;28;20075;-70
2021/04/05 08:41:41;;;;;;;40.63;7.90;;;;;;;;;;8324950;28;20439;-69
2021/04/05 08:46:11;;;;;;;67.50;9.27;;;;;;;;;;8323846;28;20500;-69
2021/04/05 08:50:20;;;;;;;17.67;5.97;;;;;;;;;;8329735;28;20367;-70
2021/04/05 08:54:29;;;;;;;;;;;;;;;;;;8324026;28;20389;-69
2021/04/05 08:58:41;;;;;;;15.98;5.28;;;;;;;;;;8325223;28;20262;-70
2021/04/05 09:02:53;;;;;;;36.88;5.60;;;;;;;;;;8326667;28;20405;-70
2021/04/05 09:07:23;;;;;;;21.27;6.35;;;;;;;;;;8324221;28;20359;-70
2021/04/05 09:11:30;;;;;;;49.33;9.43;;;;;;;;;;8324293;28;20074;-71
2021/04/05 09:16:21;;;;;;;49.00;7.97;;;;;;;;;;8325664;28;20400;-71
2021/04/05 09:20:52;;;;;;;16.75;5.38;;;;;;;;;;8305875;28;20056;-69
2021/04/05 09:25:34;;;;;;;34.17;6.20;;;;;;;;;;8325131;28;20058;-70
2021/04/05 09:30:27;;;;;;;58.20;8.35;;;;;;;;;;8324049;28;20473;-69
2021/04/05 09:35:16;;;;;;;85.78;10.65;;;;;;;;;;8323133;28;20362;-70
2021/04/05 09:39:48;;;;;;;71.40;8.52;;;;;;;;;;8321859;28;20442;-69
2021/04/05 09:44:35;;;;;;;81.60;9.73;;;;;;;;;;8325118;28;20362;-69
2021/04/05 09:49:25;;;;;;;90.55;12.02;;;;;;;;;;8323956;28;20052;-71
2021/04/05 09:53:32;;;;;;;66.18;7.57;;;;;;;;;;8275294;28;20470;-69
2021/04/05 09:57:42;;;;;;;71.78;14.15;;;;;;;;;;8323821;28;20493;-69
2021/04/05 10:01:52;;;;;;;54.17;26.00;;;;;;;;;;8306245;28;20107;-69
2021/04/05 10:05:58;;;;;;;15.60;4.75;;;;;;;;;;8322026;28;20366;-70
2021/04/05 10:10:02;;;;;;;56.55;13.38;;;;;;;;;;8324373;28;20371;-69
2021/04/05 10:14:10;;;;;;;55.28;11.55;;;;;;;;;;8306441;28;20447;-70
2021/04/05 10:18:15;;;;;;;36.60;12.90;;;;;;;;;;8321425;28;20383;-70
2021/04/05 10:22:20;;;;;;;39.95;10.45;;;;;;;;;;8322591;28;20067;-69
2021/04/05 10:26:32;;;;;;;39.17;11.75;;;;;;;;;;8321359;28;20381;-70
2021/04/05 10:30:39;;;;;;;68.95;15.40;;;;;;;;;;8322837;28;20423;-69
2021/04/05 10:34:47;;;;;;;42.60;12.73;;;;;;;;;;8322740;28;20390;-70
2021/04/05 10:38:53;;;;;;;64.53;13.57;;;;;;;;;;8322495;28;20369;-71
2021/04/05 10:43:19;;;;;;;15.30;4.88;;;;;;;;;;8321345;28;20040;-71
2021/04/05 10:47:33;;;;;;;47.83;7.78;;;;;;;;;;8322112;28;20358;-69
2021/04/05 10:51:56;;;;;;;71.68;8.63;;;;;;;;;;8303376;28;20497;-71
2021/04/05 10:56:10;;;;;;;44.67;8.27;;;;;;;;;;8320570;28;20048;-70
2021/04/05 11:00:21;;;;;;;48.97;7.07;;;;;;;;;;8322559;28;20358;-71
2021/04/05 11:04:27;;;;;;;85.80;12.70;;;;;;;;;;8305695;28;20379;-69
2021/04/05 11:08:35;;;;;;;36.30;5.78;;;;;;;;;;8321838;28;20071;-70
2021/04/05 11:12:45;;;;;;;33.47;5.53;;;;;;;;;;8322109;28;20363;-70
2021/04/05 11:17:02;;;;;;;42.83;7.80;;;;;;;;;;8306109;28;20048;-69
2021/04/05 11:21:06;;;;;;;37.70;7.90;;;;;;;;;;8305267;28;20048;-69
2021/04/05 11:25:20;;;;;;;29.83;7.07;;;;;;;;;;8320394;28;20044;-71
2021/04/05 11:29:27;;;;;;;21.67;6.28;;;;;;;;;;8322338;28;20389;-71
2021/04/05 11:33:40;;;;;;;16.20;4.68;;;;;;;;;;8322951;28;20394;-71
2021/04/05 11:37:46;;;;;;;80.78;8.43;;;;;;;;;;8277116;28;20409;-70
2021/04/05 11:41:57;;;;;;;72.53;9.27;;;;;;;;;;8330464;28;20449;-69
2021/04/05 11:46:06;;;;;;;55.80;8.85;;;;;;;;;;8329745;28;20067;-69
2021/04/05 11:50:17;;;;;;;26.13;5.43;;;;;;;;;;8328111;28;20052;-70
2021/04/05 11:54:37;;;;;;;33.70;5.70;;;;;;;;;;8325671;28;20332;-70
2021/04/05 11:58:50;;;;;;;64.27;6.70;;;;;;;;;;8326384;28;20067;-70
2021/04/05 12:03:22;;;;;;;57.53;8.15;;;;;;;;;;8327100;28;20480;-71
2021/04/05 12:07:28;;;;;;;76.25;9.15;;;;;;;;;;8327070;28;20356;-70
2021/04/05 12:11:46;;;;;;;12.05;4.10;;;;;;;;;;8324353;28;20074;-70
2021/04/05 12:15:58;;;;;;;30.33;5.95;;;;;;;;;;8309612;28;20458;-70
2021/04/05 12:20:06;;;;;;;23.70;4.97;;;;;;;;;;8309065;28;20044;-68
2021/04/05 12:24:11;;;;;;;42.47;8.57;;;;;;;;;;8326671;28;20363;-69
2021/04/05 12:28:16;;;;;;;19.80;5.38;;;;;;;;;;8325630;28;20385;-70
2021/04/05 12:32:22;;;;;;;39.97;10.10;;;;;;;;;;8308379;28;20482;-70
2021/04/05 12:36:35;;;;;;;16.48;4.55;;;;;;;;;;8326279;28;20078;-70
2021/04/05 12:40:42;;;;;;;8.23;4.55;;;;;;;;;;8324253;28;20475;-70
2021/04/05 12:44:54;;;;;;;11.07;4.40;;;;;;;;;;8326076;28;20362;-70
2021/04/05 12:49:01;;;;;;;17.80;5.47;;;;;;;;;;8327107;28;20348;-71
2021/04/05 12:53:10;;;;;;;20.13;6.50;;;;;;;;;;8324265;28;20060;-69
2021/04/05 12:57:15;;;;;;;19.23;6.65;;;;;;;;;;8324747;28;20408;-69
2021/04/05 13:01:48;;;;;;;11.02;4.20;;;;;;;;;;8323376;28;20401;-69
2021/04/05 13:06:04;;;;;;;16.08;3.80;;;;;;;;;;8325836;28;20498;-69
2021/04/05 14:54:32;;;;;;;13.05;6.45;;;;;;;;;;8278609;28;20463;-69
2021/04/05 14:58:36;;;;;;;16.13;7.80;;;;;;;;;;8321109;28;20056;-69
2021/04/05 15:02:45;;;;;;;9.38;6.28;;;;;;;;;;8321421;28;20060;-69
2021/04/05 15:06:57;;;;;;;8.25;3.45;;;;;;;;;;8322189;28;20379;-69
2021/04/05 15:11:03;;;;;;;5.93;3.25;;;;;;;;;;8324618;28;20471;-69
2021/04/05 15:15:17;;;;;;;12.10;5.28;;;;;;;;;;8311653;28;20485;-69
2021/04/05 15:19:28;;;;;;;10.25;4.32;;;;;;;;;;8312182;28;20386;-69
2021/04/05 15:23:38;;;;;;;15.70;5.97;;;;;;;;;;8327921;28;20382;-69
2021/04/05 15:28:04;;;;;;;13.13;4.95;;;;;;;;;;8326888;28;20386;-69
2021/04/05 15:32:17;;;;;;;11.40;5.03;;;;;;;;;;8326987;28;20044;-70
2021/04/05 15:36:32;;;;;;;40.33;13.27;;;;;;;;;;8325543;28;20052;-69
2021/04/05 15:40:42;;;;;;;13.70;5.78;;;;;;;;;;8328318;28;20059;-69
2021/04/05 15:44:52;;;;;;;22.52;7.25;;;;;;;;;;8328993;28;20334;-69
2021/04/05 15:49:07;;;;;;;25.05;7.80;;;;;;;;;;8329287;28;20367;-69
2021/04/05 15:53:18;;;;;;;25.20;8.85;;;;;;;;;;8325536;28;20052;-68
2021/04/05 15:57:21;;;;;;;10.18;4.07;;;;;;;;;;8327200;28;20056;-68
2021/04/05 16:02:02;;;;;;;9.15;4.28;;;;;;;;;;8327601;28;20370;-69
2021/04/05 16:06:16;;;;;;;9.90;4.65;;;;;;;;;;8328273;28;20459;-69
2021/04/05 16:10:50;;;;;;;10.02;4.15;;;;;;;;;;8326333;28;20379;-70
2021/04/05 16:14:59;;;;;;;10.80;4.55;;;;;;;;;;8322646;28;20455;-69
2021/04/05 16:19:08;;;;;;;9.95;4.38;;;;;;;;;;8326258;28;20059;-69
2021/04/05 16:23:25;;;;;;;13.82;5.63;;;;;;;;;;8326159;28;20466;-70
2021/04/05 16:27:34;;;;;;;25.10;11.68;;;;;;;;;;8325152;28;20485;-69
2021/04/05 16:31:42;;;;;;;37.47;16.67;;;;;;;;;;8325513;28;20398;-68
2021/04/05 16:35:50;;;;;;;;;;;;;;;;;;8327688;28;20078;-70
2021/04/05 16:40:24;;;;;;;25.20;7.75;;;;;;;;;;8326034;28;20353;-69
2021/04/05 16:44:35;;;;;;;37.63;13.27;;;;;;;;;;8325243;28;20417;-69
2021/04/05 16:48:48;;;;;;;38.40;11.68;;;;;;;;;;8326098;28;20355;-69
2021/04/05 16:53:00;;;;;;;95.25;13.68;;;;;;;;;;8324903;28;20332;-68
2021/04/05 16:57:08;;;;;;;38.30;9.68;;;;;;;;;;8324313;28;20474;-68
2021/04/05 17:01:14;;;;;;;67.50;21.33;;;;;;;;;;8324235;28;20064;-68
2021/04/05 17:05:33;;;;;;;60.57;19.37;;;;;;;;;;8324253;28;20442;-69
2021/04/05 17:09:45;;;;;;;58.33;12.60;;;;;;;;;;8324084;28;20397;-68
2021/04/05 17:14:08;;;;;;;17.13;6.85;;;;;;;;;;8323755;28;20056;-70
2021/04/05 17:18:19;;;;;;;18.30;8.40;;;;;;;;;;8325371;28;20443;-67
2021/04/05 17:23:07;;;;;;;13.70;6.53;;;;;;;;;;8324600;28;20066;-68
2021/04/05 17:27:17;;;;;;;9.38;3.25;;;;;;;;;;8324237;28;20056;-68
2021/04/05 17:31:36;;;;;;;11.38;2.90;;;;;;;;;;8324464;28;20419;-69
2021/04/05 17:35:46;;;;;;;4.25;2.05;;;;;;;;;;8322822;28;20366;-70
2021/04/05 17:39:54;;;;;;;9.98;4.28;;;;;;;;;;8308053;28;20466;-69
2021/04/05 17:44:05;;;;;;;6.68;2.83;;;;;;;;;;8324791;28;20051;-70
2021/04/05 17:48:49;;;;;;;11.63;6.03;;;;;;;;;;8322611;28;20070;-72
2021/04/05 17:53:12;;;;;;;12.65;5.40;;;;;;;;;;8307574;28;20328;-72
2021/04/05 17:57:44;;;;;;;7.57;3.83;;;;;;;;;;8323506;28;20363;-71
2021/04/05 18:02:12;;;;;;;14.25;5.07;;;;;;;;;;8314096;28;20463;-72
2021/04/05 18:06:52;;;;;;;15.30;5.45;;;;;;;;;;8323032;28;20450;-73
2021/04/05 18:11:04;;;;;;;21.80;8.15;;;;;;;;;;8324146;28;20431;-72
2021/04/05 18:15:57;;;;;;;30.85;11.70;;;;;;;;;;8322288;28;20481;-73
2021/04/05 18:20:48;;;;;;;21.88;9.13;;;;;;;;;;8294222;28;20352;-75
2021/04/05 18:25:11;;;;;;;11.73;5.78;;;;;;;;;;8323243;28;20066;-73
2021/04/05 18:29:59;;;;;;;27.73;12.75;;;;;;;;;;8306396;28;20044;-72
2021/04/05 18:34:38;;;;;;;18.75;8.20;;;;;;;;;;8322057;28;20375;-72
2021/04/05 18:38:45;;;;;;;12.05;5.82;;;;;;;;;;8320076;28;20458;-71
2021/04/05 18:42:51;;;;;;;12.82;5.75;;;;;;;;;;8320523;28;20360;-71
2021/04/05 18:47:10;;;;;;;8.45;3.88;;;;;;;;;;8320909;28;20455;-72
2021/04/05 18:51:20;;;;;;;16.55;4.78;;;;;;;;;;8321540;28;20344;-72
2021/04/05 18:55:25;;;;;;;12.93;4.50;;;;;;;;;;8320660;28;20074;-72
2021/04/05 18:59:45;;;;;;;15.55;5.65;;;;;;;;;;8323240;28;20461;-73
2021/04/05 19:04:01;;;;;;;16.35;5.63;;;;;;;;;;8322058;28;20478;-73
2021/04/05 19:08:23;;;;;;;16.55;5.53;;;;;;;;;;8321381;28;20398;-73
2021/04/05 19:12:55;;;;;;;13.02;4.80;;;;;;;;;;8320150;28;20413;-74
2021/04/05 19:17:53;;;;;;;16.98;7.03;;;;;;;;;;8320521;28;20111;-73
2021/04/05 19:22:40;;;;;;;24.80;9.27;;;;;;;;;;8322021;28;20501;-74
2021/04/05 19:27:25;;;;;;;9.73;4.70;;;;;;;;;;8320800;28;20331;-74
2021/04/05 19:32:22;;;;;;;9.90;4.63;;;;;;;;;;8321513;28;20435;-74
2021/04/05 19:36:53;;;;;;;5.97;2.95;;;;;;;;;;8323461;28;20373;-74
2021/04/05 19:41:24;;;;;;;7.65;3.88;;;;;;;;;;8306894;28;20447;-74
2021/04/05 19:46:00;;;;;;;9.23;4.05;;;;;;;;;;8319396;28;20350;-74
2021/04/05 19:50:14;;;;;;;4.97;2.58;;;;;;;;;;8320596;28;20469;-73
2021/04/05 19:55:04;;;;;;;5.60;2.67;;;;;;;;;;8320813;28;20409;-73
2021/04/05 19:59:32;;;;;;;5.53;2.70;;;;;;;;;;8328659;28;20357;-75
2021/04/05 20:03:54;;;;;;;5.10;2.72;;;;;;;;;;8328365;28;20466;-73
2021/04/05 20:08:35;;;;;;;4.03;1.95;;;;;;;;;;8329290;28;20484;-75
2021/04/05 20:12:51;;;;;;;4.03;1.98;;;;;;;;;;8289518;28;20472;-72
2021/04/05 20:17:06;;;;;;;4.03;1.70;;;;;;;;;;8272672;28;20379;-75
2021/04/05 20:21:21;;;;;;;7.93;2.38;;;;;;;;;;8290303;28;20071;-74
2021/04/05 20:25:40;;;;;;;5.63;3.25;;;;;;;;;;8288911;28;20482;-74
2021/04/05 20:30:05;;;;;;;5.38;1.77;;;;;;;;;;8274055;28;20362;-73
2021/04/05 20:34:59;;;;;;;6.03;2.85;;;;;;;;;;8289903;28;20371;-73
2021/04/05 20:39:31;;;;;;;2.63;1.73;;;;;;;;;;8182180;28;20370;-72
2021/04/05 20:43:40;;;;;;;19.25;6.80;;;;;;;;;;8275040;28;20371;-73
2021/04/05 20:48:00;;;;;;;30.00;8.75;;;;;;;;;;8325250;28;20420;-72
2021/04/05 20:52:10;;;;;;;73.03;18.58;;;;;;;;;;8326104;28;20405;-73
2021/04/05 20:56:24;;;;;;;152.38;34.20;;;;;;;;;;8325443;28;20410;-72
2021/04/05 21:00:35;;;;;;;15.23;6.40;;;;;;;;;;8325726;28;20516;-73
2021/04/05 21:04:41;;;;;;;8.65;3.60;;;;;;;;;;8324831;28;20367;-72
2021/04/05 21:08:45;;;;;;;5.63;2.20;;;;;;;;;;8324656;28;20478;-72
2021/04/05 21:13:05;;;;;;;13.13;5.15;;;;;;;;;;8325179;28;20475;-72
2021/04/05 21:17:31;;;;;;;10.95;4.20;;;;;;;;;;8325677;28;20386;-71
2021/04/05 21:21:45;;;;;;;7.55;3.30;;;;;;;;;;8310431;28;20372;-71
2021/04/05 21:25:52;;;;;;;19.13;5.65;;;;;;;;;;8305964;28;20355;-71
2021/04/05 21:30:06;;;;;;;10.05;3.22;;;;;;;;;;8326294;28;20455;-72
2021/04/05 21:34:21;;;;;;;6.00;2.17;;;;;;;;;;8323871;28;20359;-71
2021/04/05 21:38:40;;;;;;;5.43;2.50;;;;;;;;;;8322773;28;20340;-71
2021/04/05 21:42:54;;;;;;;9.52;3.05;;;;;;;;;;8322898;28;20477;-71
2021/04/05 21:47:06;;;;;;;10.85;3.47;;;;;;;;;;8323542;28;20400;-71
2021/04/05 21:51:14;;;;;;;14.73;6.10;;;;;;;;;;8307710;28;20401;-71
2021/04/05 21:55:56;;;;;;;5.57;2.30;;;;;;;;;;8322964;28;20485;-71
2021/04/05 22:00:17;;;;;;;3.00;1.52;;;;;;;;;;8314962;28;20492;-71
2021/04/05 22:04:21;;;;;;;10.15;2.70;;;;;;;;;;8323423;28;20469;-71
2021/04/05 22:08:36;;;;;;;26.23;5.82;;;;;;;;;;8305961;28;20392;-71
2021/04/05 22:12:40;;;;;;;9.55;3.78;;;;;;;;;;8324397;28;20453;-72
2021/04/05 22:16:48;;;;;;;26.80;4.97;;;;;;;;;;8323702;28;20443;-71
2021/04/05 22:21:10;;;;;;;22.67;3.80;;;;;;;;;;8322394;28;20475;-71
2021/04/05 22:25:14;;;;;;;42.45;9.98;;;;;;;;;;8324292;28;20462;-71
2021/04/05 22:29:20;;;;;;;19.50;6.85;;;;;;;;;;8322320;28;20482;-71
2021/04/05 22:33:31;;;;;;;27.17;7.45;;;;;;;;;;8323679;28;20048;-71
2021/04/05 22:37:37;;;;;;;75.82;15.90;;;;;;;;;;8290714;28;20439;-71
2021/04/05 22:41:51;;;;;;;47.90;10.07;;;;;;;;;;8323225;28;20063;-71
2021/04/05 22:46:06;;;;;;;27.55;8.05;;;;;;;;;;8306232;28;20473;-71
2021/04/05 22:50:26;;;;;;;9.90;2.83;;;;;;;;;;8322361;28;20470;-70
2021/04/05 22:54:36;;;;;;;40.60;10.75;;;;;;;;;;8321316;28;20451;-70
2021/04/05 22:58:40;;;;;;;6.65;2.50;;;;;;;;;;8321535;28;20491;-70
2021/04/05 23:02:44;;;;;;;6.57;2.90;;;;;;;;;;8322056;28;20391;-71
2021/04/05 23:06:51;;;;;;;13.05;4.85;;;;;;;;;;8320663;28;20493;-70
2021/04/05 23:10:58;;;;;;;6.43;2.95;;;;;;;;;;8322611;28;20469;-70
2021/04/05 23:15:05;;;;;;;6.82;2.80;;;;;;;;;;8321479;28;20645;-70
2021/04/05 23:19:33;;;;;;;15.93;5.30;;;;;;;;;;8321783;28;20446;-71
2021/04/05 23:23:45;;;;;;;20.77;7.97;;;;;;;;;;8323233;28;20082;-70
2021/04/05 23:27:52;;;;;;;10.43;4.13;;;;;;;;;;8322589;28;20481;-71
2021/04/05 23:31:58;;;;;;;12.95;4.70;;;;;;;;;;8324244;28;20378;-70
2021/04/05 23:36:10;;;;;;;24.75;8.07;;;;;;;;;;8329756;28;20510;-71
2021/04/05 23:40:37;;;;;;;15.27;6.03;;;;;;;;;;8293799;28;20075;-71
2021/04/05 23:44:43;;;;;;;35.63;12.20;;;;;;;;;;8326808;28;20404;-71
2021/04/05 23:48:49;;;;;;;21.20;7.55;;;;;;;;;;8327568;28;20493;-71
2021/04/05 23:53:01;;;;;;;11.68;5.47;;;;;;;;;;8326728;28;20052;-71
2021/04/05 23:57:08;;;;;;;23.13;8.77;;;;;;;;;;8327857;28;20363;-72
